createdAt,value
2019-03-23T00:02:22.434Z,99369.74
2019-03-23T00:07:28.648Z,99365.81
2019-03-23T00:12:34.798Z,99356.60
2019-03-23T00:17:40.651Z,99351.03
2019-03-23T00:22:47.422Z,99348.10
2019-03-23T00:27:53.235Z,99346.94
2019-03-23T00:32:59.040Z,99343.98
2019-03-23T00:38:04.966Z,99340.56
2019-03-23T00:43:10.859Z,99332.22
2019-03-23T00:48:16.664Z,99327.12
2019-03-23T00:53:22.799Z,99331.19
2019-03-23T00:58:29.598Z,99335.85
2019-03-23T01:03:35.754Z,99318.89
2019-03-23T01:08:42.107Z,99325.12
2019-03-23T01:13:48.215Z,99328.90
2019-03-23T01:18:54.234Z,99324.21
2019-03-23T01:24:00.025Z,99319.38
2019-03-23T01:29:05.819Z,99326.55
2019-03-23T01:34:14.061Z,99325.59
2019-03-23T01:39:19.863Z,99329.53
2019-03-23T01:44:25.666Z,99318.89
2019-03-23T01:49:32.565Z,99315.58
2019-03-23T01:54:38.379Z,99318.71
2019-03-23T01:59:44.188Z,99319.65
2019-03-23T02:04:50.854Z,99321.49
2019-03-23T02:09:56.675Z,99316.94
2019-03-23T02:15:03.656Z,99317.31
2019-03-23T02:20:10.490Z,99312.44
2019-03-23T02:25:16.723Z,99310.33
2019-03-23T02:30:23.604Z,99313.18
2019-03-23T02:35:29.424Z,99316.02
2019-03-23T02:40:35.269Z,99321.02
2019-03-23T02:45:41.067Z,99322.19
2019-03-23T02:50:47.107Z,99325.33
2019-03-23T02:55:53.325Z,99321.38
2019-03-23T03:00:59.127Z,99317.30
2019-03-23T03:06:04.958Z,99310.53
2019-03-23T03:11:11.952Z,99311.70
2019-03-23T03:16:18.602Z,99301.97
2019-03-23T03:21:25.217Z,99301.13
2019-03-23T03:26:31.390Z,99304.09
2019-03-23T03:31:37.446Z,99301.13
2019-03-23T03:36:44.635Z,99300.34
2019-03-23T03:41:50.573Z,99299.70
2019-03-23T03:46:56.367Z,99302.34
2019-03-23T03:52:02.499Z,99300.20
2019-03-23T03:57:09.195Z,99296.09
2019-03-23T04:02:15.834Z,99304.35
2019-03-23T04:07:21.721Z,99296.28
2019-03-23T04:12:28.587Z,99293.48
2019-03-23T04:17:34.630Z,99291.02
2019-03-23T04:22:41.237Z,99283.42
2019-03-23T04:27:47.238Z,99297.13
2019-03-23T04:32:54.241Z,99285.27
2019-03-23T04:37:59.929Z,99291.34
2019-03-23T04:43:05.902Z,99293.00
2019-03-23T04:48:11.666Z,99288.88
2019-03-23T04:53:17.352Z,99292.35
2019-03-23T04:58:23.370Z,99293.98
2019-03-23T05:03:29.980Z,99298.59
2019-03-23T05:08:36.238Z,99291.70
2019-03-23T05:13:41.860Z,99297.14
2019-03-23T05:18:47.471Z,99309.30
2019-03-23T05:23:53.417Z,99306.18
2019-03-23T05:28:59.964Z,99303.38
2019-03-23T05:34:06.134Z,99302.41
2019-03-23T05:39:11.811Z,99309.47
2019-03-23T05:44:17.571Z,99311.77
2019-03-23T05:49:23.638Z,99311.45
2019-03-23T05:54:29.311Z,99313.42
2019-03-23T05:59:35.010Z,99321.16
2019-03-23T06:04:41.738Z,99321.16
2019-03-23T06:09:47.435Z,99323.13
2019-03-23T06:14:53.119Z,99333.17
2019-03-23T06:19:58.945Z,99324.91
2019-03-23T06:25:05.323Z,99324.41
2019-03-23T06:30:11.482Z,99323.89
2019-03-23T06:35:17.278Z,99325.84
2019-03-23T06:40:23.788Z,99327.45
2019-03-23T06:45:29.687Z,99330.53
2019-03-23T06:50:36.214Z,99329.16
2019-03-23T06:55:41.906Z,99332.30
2019-03-23T07:00:48.077Z,99333.05
2019-03-23T07:05:55.911Z,99338.41
2019-03-23T07:11:01.707Z,99342.08
2019-03-23T07:16:07.681Z,99343.66
2019-03-23T07:21:14.523Z,99342.19
2019-03-23T07:26:20.389Z,99334.25
2019-03-23T07:31:26.663Z,99334.02
2019-03-23T07:36:33.072Z,99329.53
2019-03-23T07:41:39.381Z,99330.80
2019-03-23T07:46:48.600Z,99329.25
2019-03-23T07:51:54.569Z,99325.84
2019-03-23T07:57:03.129Z,99321.72
2019-03-23T08:02:09.250Z,99319.67
2019-03-23T08:07:16.437Z,99315.39
2019-03-23T08:12:26.400Z,99313.06
2019-03-23T08:17:37.009Z,99315.03
2019-03-23T08:22:45.435Z,99315.81
2019-03-23T08:27:54.317Z,99323.37
2019-03-23T08:33:00.752Z,99317.09
2019-03-23T08:38:08.606Z,99320.20
2019-03-23T08:43:19.150Z,99312.53
2019-03-23T08:48:25.753Z,99307.21
2019-03-23T08:53:31.694Z,99311.59
2019-03-23T08:58:35.404Z,99306.23
2019-03-23T09:03:51.793Z,99310.59
2019-03-23T09:08:49.775Z,99302.71
2019-03-23T09:13:58.029Z,99299.75
2019-03-23T09:19:05.949Z,99296.89
2019-03-23T09:24:13.112Z,99297.11
2019-03-23T09:29:22.792Z,99288.70
2019-03-23T09:34:33.706Z,99293.98
2019-03-23T09:39:45.973Z,99295.19
2019-03-23T09:44:56.455Z,99301.37
2019-03-23T09:50:05.491Z,99299.26
2019-03-23T09:55:13.875Z,99299.05
2019-03-23T10:00:21.162Z,99297.07
2019-03-23T10:05:28.689Z,99303.38
2019-03-23T10:10:39.680Z,99297.98
2019-03-23T10:15:48.218Z,99294.31
2019-03-23T10:20:55.266Z,99284.08
2019-03-23T10:26:04.056Z,99282.77
2019-03-23T10:31:11.853Z,99285.00
2019-03-23T10:36:19.901Z,99285.48
2019-03-23T10:41:29.384Z,99283.19
2019-03-23T10:46:41.426Z,99279.53
2019-03-23T10:51:56.219Z,99278.89
2019-03-23T10:57:03.453Z,99269.94
2019-03-23T11:02:12.042Z,99276.21
2019-03-23T11:07:24.865Z,99267.27
2019-03-23T11:12:31.561Z,99271.12
2019-03-23T11:17:40.370Z,99268.23
2019-03-23T11:22:52.107Z,99267.92
2019-03-23T11:28:00.744Z,99263.05
2019-03-23T11:33:08.762Z,99264.66
2019-03-23T11:38:17.204Z,99273.07
2019-03-23T11:43:28.390Z,99268.39
2019-03-23T11:48:38.283Z,99259.45
2019-03-23T11:53:48.317Z,99258.69
2019-03-23T11:58:56.148Z,99260.38
2019-03-23T12:04:04.657Z,99247.77
2019-03-23T12:09:13.940Z,99245.36
2019-03-23T12:14:21.671Z,99235.42
2019-03-23T12:19:32.628Z,99244.81
2019-03-23T12:24:40.248Z,99246.27
2019-03-23T12:29:48.144Z,99246.02
2019-03-23T12:34:55.244Z,99241.00
2019-03-23T12:40:04.796Z,99246.09
2019-03-23T12:45:14.901Z,99238.49
2019-03-23T12:50:20.762Z,99238.27
2019-03-23T12:55:26.874Z,99227.59
2019-03-23T13:00:32.707Z,99221.11
2019-03-23T13:05:38.907Z,99215.66
2019-03-23T13:10:44.713Z,99220.94
2019-03-23T13:15:51.024Z,99221.48
2019-03-23T13:20:56.799Z,99215.05
2019-03-23T13:26:02.642Z,99215.45
2019-03-23T13:31:08.443Z,99218.02
2019-03-23T13:36:14.300Z,99218.42
2019-03-23T13:41:20.035Z,99223.14
2019-03-23T13:46:25.830Z,99220.83
2019-03-23T13:51:31.657Z,99217.84
2019-03-23T13:56:37.552Z,99220.62
2019-03-23T14:01:43.362Z,99224.86
2019-03-23T14:06:51.338Z,99208.98
2019-03-23T14:11:59.618Z,99206.70
2019-03-23T14:17:05.601Z,99206.34
2019-03-23T14:22:15.667Z,99201.30
2019-03-23T14:27:22.248Z,99203.66
2019-03-23T14:32:29.454Z,99204.34
2019-03-23T14:37:37.897Z,99223.52
2019-03-23T14:42:50.544Z,99214.66
2019-03-23T14:47:57.933Z,99235.41
2019-03-23T14:53:07.920Z,99241.92
2019-03-23T14:58:18.483Z,99232.13
2019-03-23T15:03:27.854Z,99249.52
2019-03-23T15:08:36.062Z,99258.55
2019-03-23T15:13:47.666Z,99259.29
2019-03-23T15:18:58.252Z,99263.94
2019-03-23T15:24:10.886Z,99270.55
2019-03-23T15:29:17.780Z,99274.84
2019-03-23T15:34:28.961Z,99259.98
2019-03-23T15:39:39.454Z,99290.67
2019-03-23T15:45:03.733Z,99294.44
2019-03-23T15:50:22.850Z,99303.38
2019-03-23T15:55:33.190Z,99307.71
2019-03-23T16:00:42.742Z,99325.03
2019-03-23T16:05:53.259Z,99337.52
2019-03-23T16:11:08.600Z,99341.41
2019-03-23T16:16:19.434Z,99352.25
2019-03-23T16:21:29.278Z,99362.05
2019-03-23T16:26:35.296Z,99363.64
2019-03-23T16:31:41.538Z,99367.58
2019-03-23T16:36:49.196Z,99385.48
2019-03-23T16:41:57.266Z,99397.05
2019-03-23T16:47:03.644Z,99401.45
2019-03-23T16:52:15.264Z,99405.44
2019-03-23T16:57:22.871Z,99413.28
2019-03-23T17:02:31.069Z,99424.34
2019-03-23T17:07:37.396Z,99427.75
2019-03-23T17:12:43.915Z,99422.63
2019-03-23T17:17:49.729Z,99430.37
2019-03-23T17:22:55.491Z,99438.53
2019-03-23T17:28:01.265Z,99446.50
2019-03-23T17:33:09.026Z,99446.78
2019-03-23T17:38:15.923Z,99446.93
2019-03-23T17:43:21.792Z,99458.52
2019-03-23T17:48:27.473Z,99459.94
2019-03-23T17:53:34.382Z,99466.46
2019-03-23T17:58:40.155Z,99471.83
2019-03-23T18:03:45.911Z,99484.62
2019-03-23T18:08:51.676Z,99497.20
2019-03-23T18:13:57.465Z,99499.33
2019-03-23T18:19:03.227Z,99505.28
2019-03-23T18:24:09.138Z,99508.47
2019-03-23T18:29:15.963Z,99525.97
2019-03-23T18:34:22.370Z,99534.20
2019-03-23T18:39:29.396Z,99536.19
2019-03-23T18:44:35.284Z,99553.17
2019-03-23T18:49:41.049Z,99556.30
2019-03-23T18:54:46.915Z,99560.61
2019-03-23T18:59:52.990Z,99561.75
2019-03-23T19:04:59.062Z,99568.53
2019-03-23T19:10:05.604Z,99576.09
2019-03-23T19:15:11.997Z,99586.16
2019-03-23T19:20:18.209Z,99588.80
2019-03-23T19:25:24.340Z,99588.30
2019-03-23T19:30:30.208Z,99593.89
2019-03-23T19:35:35.910Z,99592.26
2019-03-23T19:40:43.255Z,99600.98
2019-03-23T19:45:49.302Z,99607.44
2019-03-23T19:50:55.035Z,99614.16
2019-03-23T19:56:01.282Z,99620.74
2019-03-23T20:01:07.269Z,99619.94
2019-03-23T20:06:13.046Z,99624.68
2019-03-23T20:11:18.826Z,99627.30
2019-03-23T20:16:24.591Z,99622.11
2019-03-23T20:21:30.279Z,99626.25
2019-03-23T20:26:36.367Z,99624.62
2019-03-23T20:31:42.692Z,99621.78
2019-03-23T20:36:49.098Z,99622.99
2019-03-23T20:41:54.994Z,99625.92
2019-03-23T20:47:01.670Z,99624.62
2019-03-23T20:52:08.659Z,99621.05
2019-03-23T20:57:23.379Z,99623.02
2019-03-23T21:02:22.168Z,99615.75
2019-03-23T21:07:28.254Z,99620.72
2019-03-23T21:12:34.387Z,99622.66
2019-03-23T21:17:50.652Z,99615.11
2019-03-23T21:22:47.822Z,99610.80
2019-03-23T21:27:54.916Z,99607.04
2019-03-23T21:33:01.036Z,99592.36
2019-03-23T21:38:06.729Z,99587.58
2019-03-23T21:43:12.495Z,99591.72
2019-03-23T21:48:19.243Z,99585.95
2019-03-23T21:53:26.442Z,99585.34
2019-03-23T21:58:32.481Z,99584.97
2019-03-23T22:03:38.279Z,99587.28
2019-03-23T22:08:44.287Z,99581.55
2019-03-23T22:13:50.082Z,99579.80
2019-03-23T22:18:56.134Z,99575.52
2019-03-23T22:24:01.821Z,99575.48
2019-03-23T22:29:07.657Z,99576.48
2019-03-23T22:34:13.462Z,99571.00
2019-03-23T22:39:20.437Z,99571.62
2019-03-23T22:44:27.373Z,99569.63
2019-03-23T22:49:34.181Z,99560.58
2019-03-23T22:54:40.394Z,99555.48
2019-03-23T22:59:46.010Z,99560.53
2019-03-23T23:04:52.431Z,99550.75
2019-03-23T23:09:58.513Z,99548.15
2019-03-23T23:15:05.155Z,99547.91
2019-03-23T23:20:12.070Z,99542.64
2019-03-23T23:25:17.820Z,99542.34
2019-03-23T23:30:23.531Z,99543.34
2019-03-23T23:35:29.526Z,99536.73
2019-03-23T23:40:35.524Z,99534.32
2019-03-23T23:45:41.280Z,99535.94
2019-03-23T23:50:48.044Z,99537.52
2019-03-23T23:55:53.806Z,99533.54
